Time;durP1;ratioP1;P1;durP2;ratioP2;P2;SDS_P1;SDS_P2;PMS_P1;PMS_P2;Temp;Humidity;BMP_temperature;BMP_pressure;BME280_temperature;BME280_humidity;BME280_pressure;Samples;Min_cycle;Max_cycle;Signal;HPM_P1;HPM_P2
2021/06/16 00:04:24;;;;;;;;;;;18.80;89.20;;;17.89;62.01;95765.31;10421742;28;2186;-83
2021/06/16 00:09:26;;;;;;;;;;;18.80;89.60;;;17.93;61.57;95758.09;10441990;28;2068;-80
2021/06/16 00:14:29;;;;;;;;;;;18.90;89.20;;;18.43;58.68;95752.91;10421814;28;2722;-81
2021/06/16 00:19:32;;;;;;;;;;;19.10;88.30;;;18.43;58.34;95757.53;10401880;28;1926;-82
2021/06/16 00:24:35;;;;;;;;;;;19.30;87.50;;;18.40;57.91;95747.31;10421961;28;1384;-82
2021/06/16 00:29:37;;;;;;;;;;;19.40;86.60;;;18.66;57.38;95755.41;10403685;28;2072;-82
2021/06/16 00:34:41;;;;;;;;;;;19.40;86.60;;;18.61;56.79;95754.44;10406558;28;2148;-81
2021/06/16 00:39:44;;;;;;;;;;;19.50;86.30;;;18.43;56.97;95757.53;10401982;28;2270;-80
2021/06/16 00:44:46;;;;;;;;;;;19.40;85.30;;;18.40;56.61;95760.94;10404016;28;1788;-82
2021/06/16 00:49:49;;;;;;;;;;;19.30;85.20;;;18.31;56.35;95753.56;10394372;28;1758;-80
2021/06/16 00:55:03;;;;;;;;;;;19.20;84.90;;;18.12;56.58;95744.94;10403615;28;2039;-79
2021/06/16 01:00:08;;;;;;;;;;;19.10;85.20;;;17.98;57.49;95747.84;10394986;28;2093;-81
2021/06/16 01:05:18;;;;;;;;;;;19.00;85.20;;;18.09;57.31;95748.31;10415652;28;2273;-80
2021/06/16 01:10:22;;;;;;;;;;;19.00;85.90;;;17.94;57.77;95756.97;10401420;28;2118;-81
2021/06/16 01:15:25;;;;;;;;;;;19.00;86.20;;;18.05;57.49;95747.34;10411999;28;2091;-78
2021/06/16 01:20:28;;;;;;;;;;;18.90;86.40;;;17.89;57.61;95749.78;10422883;28;2229;-79
2021/06/16 01:25:30;;;;;;;;;;;18.90;86.40;;;17.80;58.86;95747.03;10449567;28;1815;-81
2021/06/16 01:30:33;;;;;;;;;;;18.80;86.90;;;17.68;59.43;95744.13;10427086;28;2272;-81
2021/06/16 01:35:36;;;;;;;;;;;18.70;87.40;;;17.49;59.60;95746.34;10412258;28;1341;-82
2021/06/16 01:40:39;;;;;;;;;;;18.60;87.70;;;17.52;60.01;95740.31;10422262;28;2201;-81
2021/06/16 01:45:42;;;;;;;;;;;18.50;88.10;;;17.99;58.28;95735.03;10417198;28;2154;-80
2021/06/16 01:50:45;;;;;;;;;;;18.70;88.20;;;17.56;59.65;95742.06;10424895;28;2109;-82
2021/06/16 01:55:48;;;;;;;;;;;18.70;88.20;;;17.95;58.71;95732.19;10413181;28;2135;-81
2021/06/16 02:00:51;;;;;;;;;;;18.70;88.40;;;17.61;59.65;95743.81;10418832;28;2188;-80
2021/06/16 02:05:54;;;;;;;;;;;18.70;88.30;;;17.64;60.03;95742.41;10433728;28;2341;-82
2021/06/16 02:10:57;;;;;;;;;;;18.60;88.80;;;17.47;60.76;95740.44;10405211;28;2318;-81
2021/06/16 02:16:00;;;;;;;;;;;18.50;89.30;;;17.31;61.38;95728.47;10412284;28;2486;-82
2021/06/16 02:21:02;;;;;;;;;;;18.40;89.50;;;17.21;61.92;95729.53;10449738;28;1922;-82
2021/06/16 02:26:05;;;;;;;;;;;18.30;90.00;;;17.10;62.36;95733.66;10448610;28;1808;-82
2021/06/16 02:31:08;;;;;;;;;;;18.20;90.50;;;16.93;63.02;95729.00;10454649;28;1305;-83
2021/06/16 02:36:11;;;;;;;;;;;18.10;90.90;;;16.67;63.33;95732.41;10437598;28;2006;-83
2021/06/16 02:41:13;;;;;;;;;;;17.90;91.10;;;16.59;63.92;95730.44;10450862;28;2115;-83
2021/06/16 02:46:16;;;;;;;;;;;17.70;92.00;;;16.50;64.03;95729.59;10451772;28;1459;-82
2021/06/16 02:51:19;;;;;;;;;;;17.60;92.10;;;16.43;64.15;95737.38;10455278;28;2311;-82
2021/06/16 02:56:22;;;;;;;;;;;17.50;92.40;;;16.42;64.49;95749.34;10440036;28;2067;-82
2021/06/16 03:01:25;;;;;;;;;;;17.50;92.80;;;16.39;64.71;95747.25;10424597;28;2140;-80
2021/06/16 03:06:28;;;;;;;;;;;17.50;93.20;;;16.48;65.14;95746.19;10426837;28;2243;-81
2021/06/16 03:11:30;;;;;;;;;;;17.50;93.90;;;16.51;64.09;95743.97;10425734;28;2066;-83
2021/06/16 03:16:33;;;;;;;;;;;17.50;93.70;;;16.78;64.19;95743.00;10436805;28;1808;-81
2021/06/16 03:21:36;;;;;;;;;;;17.60;93.90;;;16.75;64.32;95749.84;10449930;28;1910;-81
2021/06/16 03:26:39;;;;;;;;;;;17.70;93.60;;;17.09;61.47;95741.00;10424949;28;1460;-82
2021/06/16 03:32:03;;;;;;;;;;;17.80;92.30;;;17.23;61.41;95740.88;10402822;28;1670;-82
2021/06/16 03:37:06;;;;;;;;;;;18.00;91.70;;;17.62;59.23;95731.81;10423229;28;1330;-78
2021/06/16 03:42:10;;;;;;;;;;;18.30;90.60;;;17.93;58.24;95733.59;10404435;28;1981;-80
2021/06/16 03:47:13;;;;;;;;;;;18.60;89.50;;;18.16;57.24;95736.97;10408169;28;2147;-82
2021/06/16 03:52:15;;;;;;;;;;;18.80;88.60;;;17.80;58.59;95747.03;10424565;28;2088;-79
2021/06/16 03:57:18;;;;;;;;;;;18.80;88.50;;;17.60;59.37;95749.56;10412472;28;2124;-80
2021/06/16 04:02:21;;;;;;;;;;;18.60;88.90;;;17.75;59.34;95749.13;10424350;28;2129;-80
2021/06/16 04:07:23;;;;;;;;;;;18.60;89.60;;;18.18;57.73;95746.38;10415833;28;1504;-82
2021/06/16 04:12:27;;;;;;;;;;;18.70;89.30;;;18.22;58.07;95752.00;10406466;28;2126;-81
2021/06/16 04:17:52;;;;;;;;;;;19.00;88.90;;;18.31;58.24;95750.03;10420759;28;2108;-80
2021/06/16 04:23:03;;;;;;;;;;;19.10;88.90;;;18.70;57.17;95749.00;10407691;28;2184;-82
2021/06/16 04:28:06;;;;;;;;;;;19.30;88.70;;;18.33;57.03;95747.81;10397476;28;2108;-81
2021/06/16 04:33:09;;;;;;;;;;;19.30;87.40;;;18.20;58.68;95749.59;10422660;28;1379;-82
2021/06/16 04:38:12;;;;;;;;;;;19.10;88.60;;;18.52;57.83;95739.28;10406817;28;2104;-81
2021/06/16 04:43:14;;;;;;;;;;;19.20;88.60;;;18.64;57.32;95745.66;10405308;28;2197;-84
2021/06/16 04:48:18;;;;;;;;;;;19.40;88.10;;;18.94;57.65;95737.53;10398568;28;2076;-83
2021/06/16 04:53:21;;;;;;;;;;;19.40;88.90;;;19.11;57.26;95742.09;10409194;28;2070;-80
2021/06/16 04:58:24;;;;;;;;;;;19.90;88.50;;;19.84;55.57;95739.88;10435697;28;2212;-82
2021/06/16 05:03:27;;;;;;;;;;;20.30;88.10;;;19.66;56.60;95741.16;10408168;28;2072;-79
2021/06/16 05:08:29;;;;;;;;;;;20.60;87.20;;;20.70;53.01;95743.72;10422762;28;2144;-81
2021/06/16 05:13:32;;;;;;;;;;;21.00;86.20;;;21.11;51.60;95738.41;10409929;28;2075;-82
2021/06/16 05:18:35;;;;;;;;;;;21.40;85.00;;;20.84;52.50;95742.59;10424478;28;1943;-82
2021/06/16 05:23:38;;;;;;;;;;;21.50;84.40;;;20.42;53.33;95743.53;10429201;28;1898;-81
2021/06/16 05:28:48;;;;;;;;;;;20.40;83.80;;;20.80;52.90;95742.47;10423852;28;1379;-80
2021/06/16 05:33:51;;;;;;;;;;;21.50;84.80;;;21.36;51.27;95740.00;10413531;28;1525;-80
2021/06/16 05:38:54;;;;;;;;;;;21.70;84.50;;;21.66;51.00;95740.56;10401070;28;1734;-80
2021/06/16 05:43:57;;;;;;;;;;;22.00;84.00;;;20.83;53.27;95741.03;10409112;28;2109;-81
2021/06/16 05:48:59;;;;;;;;;;;21.90;83.90;;;21.39;51.83;95741.28;10422461;28;2213;-80
2021/06/16 05:54:02;;;;;;;;;;;21.90;83.90;;;21.67;51.00;95741.34;10403468;28;2136;-79
2021/06/16 05:59:05;;;;;;;;;;;22.20;83.50;;;21.86;50.46;95738.78;10407203;28;2152;-81
2021/06/16 06:04:08;;;;;;;;;;;22.40;83.20;;;22.21;49.67;95739.03;10416525;28;2072;-81
2021/06/16 06:09:10;;;;;;;;;;;22.70;82.40;;;22.70;48.88;95737.97;10409949;28;2081;-80
2021/06/16 06:14:13;;;;;;;;;;;23.00;82.00;;;22.55;48.91;95734.88;10429164;28;1854;-81
2021/06/16 06:19:16;;;;;;;;;;;23.30;80.80;;;23.20;46.70;95729.06;10441181;28;2066;-81
2021/06/16 06:24:19;;;;;;;;;;;23.60;80.00;;;23.17;47.63;95730.59;10439963;28;1967;-80
2021/06/16 06:29:22;;;;;;;;;;;23.70;80.10;;;23.06;46.71;95732.28;10421253;28;2385;-82
2021/06/16 06:34:33;;;;;;;;;;;23.70;79.10;;;22.96;47.63;95724.56;10400665;28;2214;-80
2021/06/16 06:39:36;;;;;;;;;;;23.80;79.90;;;23.28;45.68;95722.59;10432608;28;2044;-79
2021/06/16 06:44:39;;;;;;;;;;;23.80;77.80;;;23.42;45.05;95717.47;10401857;28;2316;-80
2021/06/16 06:49:54;;;;;;;;;;;24.00;77.20;;;23.07;45.83;95720.16;10415459;28;2108;-81
2021/06/16 06:55:00;;;;;;;;;;;24.00;76.70;;;24.06;45.13;95715.31;10408416;28;2111;-81
2021/06/16 07:00:04;;;;;;;;;;;24.30;77.60;;;24.65;42.29;95713.31;10412958;28;2006;-82
2021/06/16 07:05:08;;;;;;;;;;;24.70;75.80;;;24.57;42.04;95712.41;10422252;28;2008;-80
2021/06/16 07:10:11;;;;;;;;;;;25.00;74.50;;;24.60;41.89;95714.41;10409839;28;1802;-82
2021/06/16 07:15:14;;;;;;;;;;;25.10;73.20;;;24.79;41.99;95708.06;10419612;28;1743;-81
2021/06/16 07:20:17;;;;;;;;;;;25.30;73.40;;;24.42;39.93;95708.59;10414545;28;2056;-80
2021/06/16 07:25:20;;;;;;;;;;;25.40;70.10;;;24.74;39.82;95706.41;10413178;28;1977;-81
2021/06/16 07:30:23;;;;;;;;;;;25.50;70.70;;;24.85;39.78;95703.06;10410104;28;1871;-81
2021/06/16 07:35:25;;;;;;;;;;;25.60;70.50;;;25.26;40.66;95701.41;10416536;28;2023;-83
2021/06/16 07:40:28;;;;;;;;;;;25.80;71.60;;;25.55;40.41;95700.66;10423260;28;2127;-82
2021/06/16 07:45:31;;;;;;;;;;;26.00;71.80;;;25.73;37.65;95700.94;10433196;28;1888;-82
2021/06/16 07:50:36;;;;;;;;;;;26.30;69.20;;;26.01;36.45;95699.69;10407685;28;1822;-82
2021/06/16 07:55:40;;;;;;;;;;;26.50;68.30;;;25.99;38.53;95689.06;10398025;28;2102;-82
2021/06/16 08:00:43;;;;;;;;;;;26.50;68.80;;;26.02;38.52;95684.75;10418463;28;1894;-81
2021/06/16 08:05:47;;;;;;;;;;;26.70;68.90;;;25.10;39.63;95687.78;10392201;28;1983;-80
2021/06/16 08:11:05;;;;;;;;;;;26.50;68.60;;;25.01;40.24;95706.50;10413902;28;2084;-81
2021/06/16 08:16:08;;;;;;;;;;;26.40;69.10;;;25.10;39.46;95698.78;10407335;28;2124;-82
2021/06/16 08:21:10;;;;;;;;;;;26.10;69.20;;;25.23;39.31;95691.94;10412227;28;2120;-82
2021/06/16 08:26:13;;;;;;;;;;;26.20;68.80;;;25.95;38.41;95698.44;10428139;28;2173;-82
2021/06/16 08:31:16;;;;;;;;;;;26.50;68.60;;;25.83;37.70;95692.03;10432105;28;2102;-83
2021/06/16 08:36:20;;;;;;;;;;;26.70;67.50;;;25.43;38.21;95692.59;10441177;28;2025;-81
2021/06/16 08:41:23;;;;;;;;;;;26.30;67.90;;;26.12;37.60;95695.91;10395868;28;2032;-82
2021/06/16 08:46:26;;;;;;;;;;;26.50;68.20;;;25.16;37.97;95694.56;10396425;28;2073;-82
2021/06/16 08:51:29;;;;;;;;;;;26.50;66.40;;;24.72;38.71;95689.50;10411890;28;1957;-81
2021/06/16 08:56:32;;;;;;;;;;;26.00;67.00;;;25.29;37.71;95686.91;10401554;28;2098;-82
2021/06/16 09:01:35;;;;;;;;;;;26.10;67.00;;;25.41;37.40;95691.41;10411081;28;2083;-81
2021/06/16 09:06:38;;;;;;;;;;;26.10;66.90;;;25.30;37.59;95683.78;10412216;28;2103;-81
2021/06/16 09:11:41;;;;;;;;;;;26.40;66.30;;;26.70;34.88;95680.78;10400321;28;1644;-82
2021/06/16 09:16:44;;;;;;;;;;;26.90;65.40;;;25.68;36.76;95670.94;10395648;28;1823;-81
2021/06/16 09:21:47;;;;;;;;;;;27.30;64.40;;;25.56;36.82;95671.16;10412719;28;2145;-83
2021/06/16 09:26:50;;;;;;;;;;;26.80;64.40;;;25.57;37.77;95670.78;10408177;28;2062;-82
2021/06/16 09:31:53;;;;;;;;;;;26.60;65.70;;;26.30;36.39;95678.78;10408441;28;2032;-82
2021/06/16 09:36:56;;;;;;;;;;;26.80;65.90;;;25.53;37.34;95677.44;10400636;28;1636;-82
2021/06/16 09:41:59;;;;;;;;;;;26.90;64.70;;;26.71;35.00;95665.81;10403614;28;1914;-82
2021/06/16 09:47:02;;;;;;;;;;;27.20;64.80;;;25.96;37.38;95670.56;10397601;28;2212;-81
2021/06/16 09:52:05;;;;;;;;;;;27.30;65.40;;;25.92;36.02;95668.91;10399786;28;1932;-82
2021/06/16 09:57:08;;;;;;;;;;;27.10;64.20;;;26.18;35.50;95677.09;10407518;28;2043;-81
2021/06/16 10:02:11;;;;;;;;;;;27.20;63.90;;;26.57;33.74;95662.94;10409987;28;2271;-81
2021/06/16 10:07:14;;;;;;;;;;;27.30;62.50;;;25.96;35.32;95664.22;10400089;28;2198;-82
2021/06/16 10:12:17;;;;;;;;;;;27.40;62.50;;;26.47;34.89;95660.91;10409244;28;2353;-80
2021/06/16 10:17:20;;;;;;;;;;;27.20;63.60;;;26.62;34.37;95657.09;10408015;28;2098;-81
2021/06/16 10:22:23;;;;;;;;;;;27.40;62.90;;;26.51;33.12;95658.94;10417750;28;2309;-80
2021/06/16 10:27:26;;;;;;;;;;;27.70;61.10;;;27.02;32.05;95663.72;10409384;28;2140;-80
2021/06/16 10:32:29;;;;;;;;;;;27.90;60.10;;;26.72;33.07;95645.38;10420666;28;2207;-79
2021/06/16 10:37:32;;;;;;;;;;;27.60;61.20;;;27.08;32.73;95634.63;10419812;28;2186;-80
2021/06/16 10:42:34;;;;;;;;;;;28.00;61.00;;;27.08;31.88;95640.16;10399478;28;2323;-81
2021/06/16 10:47:37;;;;;;;;;;;28.80;58.70;;;27.59;30.62;95626.28;10411687;28;2519;-80
2021/06/16 10:52:40;;;;;;;;;;;29.50;57.50;;;27.60;31.65;95633.38;10417352;28;2070;-80
2021/06/16 10:57:43;;;;;;;;;;;29.80;57.30;;;27.68;30.77;95629.50;10412121;28;2090;-79
2021/06/16 11:02:45;;;;;;;;;;;29.70;56.80;;;27.64;29.49;95639.72;10415735;28;2211;-79
2021/06/16 11:07:48;;;;;;;;;;;29.60;55.20;;;27.79;30.27;95624.03;10419746;28;2165;-81
2021/06/16 11:12:51;;;;;;;;;;;29.80;56.10;;;27.70;29.92;95626.34;10415640;28;2326;-80
2021/06/16 11:17:54;;;;;;;;;;;29.90;54.90;;;28.27;29.47;95615.50;10406712;28;2019;-80
2021/06/16 11:22:56;;;;;;;;;;;30.30;55.40;;;28.31;29.31;95610.78;10421457;28;1914;-79
2021/06/16 11:27:59;;;;;;;;;;;30.40;55.00;;;27.34;31.04;95614.31;10422717;28;2359;-80
2021/06/16 11:33:02;;;;;;;;;;;29.40;56.00;;;26.96;31.77;95610.88;10417334;28;2154;-81
2021/06/16 11:38:05;;;;;;;;;;;28.90;56.70;;;27.85;30.15;95610.63;10407589;28;2166;-81
2021/06/16 11:43:08;;;;;;;;;;;29.00;56.80;;;27.16;31.96;95608.66;10434052;28;1905;-80
2021/06/16 11:48:10;;;;;;;;;;;28.70;57.30;;;27.58;29.68;95601.81;10424343;28;2078;-81
2021/06/16 11:53:14;;;;;;;;;;;28.60;56.30;;;27.77;30.53;95586.94;10411440;28;2016;-81
2021/06/16 11:58:17;;;;;;;;;;;28.90;56.30;;;27.19;31.10;95586.63;10424710;28;1845;-81
2021/06/16 12:03:20;;;;;;;;;;;28.70;55.90;;;27.53;28.36;95580.09;10416606;28;2009;-83
2021/06/16 12:08:27;;;;;;;;;;;28.40;54.70;;;28.07;28.06;95579.13;10421017;28;2087;-83
2021/06/16 12:13:29;;;;;;;;;;;28.80;54.30;;;28.81;27.60;95574.84;10406326;28;2326;-80
2021/06/16 12:18:33;;;;;;;;;;;29.40;54.40;;;28.91;28.12;95571.31;10427292;28;2097;-80
2021/06/16 12:23:39;;;;;;;;;;;29.70;54.30;;;28.96;28.42;95562.63;10422115;28;2164;-81
2021/06/16 12:28:42;;;;;;;;;;;30.00;55.10;;;28.43;30.10;95562.63;10433338;28;2138;-80
2021/06/16 12:33:49;;;;;;;;;;;29.70;55.70;;;29.04;27.49;95563.41;10417103;28;2180;-82
2021/06/16 12:38:55;;;;;;;;;;;29.90;54.00;;;28.62;27.10;95559.47;10456934;28;2063;-82
2021/06/16 12:44:01;;;;;;;;;;;29.70;53.20;;;27.57;29.51;95556.06;10445580;28;2189;-82
2021/06/16 12:49:03;;;;;;;;;;;29.10;54.50;;;28.33;24.58;95558.69;10427493;28;2269;-82
2021/06/16 12:54:06;;;;;;;;;;;29.10;51.10;;;29.23;23.99;95548.34;10416292;28;2165;-82
2021/06/16 12:59:10;;;;;;;;;;;29.70;50.80;;;28.48;26.75;95549.19;10402660;28;2188;-80
2021/06/16 13:04:13;;;;;;;;;;;29.90;51.40;;;27.58;28.12;95549.34;10395902;28;2131;-79
2021/06/16 13:09:16;;;;;;;;;;;29.30;52.30;;;28.99;24.06;95538.91;10413377;28;2079;-80
2021/06/16 13:14:19;;;;;;;;;;;29.40;50.60;;;28.53;25.25;95540.50;10402725;28;2074;-79
2021/06/16 13:19:22;;;;;;;;;;;29.50;50.50;;;27.80;26.72;95525.38;10401648;28;2290;-81
2021/06/16 13:24:25;;;;;;;;;;;29.10;51.60;;;28.87;24.02;95529.00;10400538;28;2110;-80
2021/06/16 13:29:28;;;;;;;;;;;29.20;50.30;;;28.51;23.01;95520.78;10404397;28;2071;-80
2021/06/16 13:34:31;;;;;;;;;;;30.10;49.10;;;28.80;22.92;95512.44;10422257;28;2247;-78
2021/06/16 13:39:33;;;;;;;;;;;29.50;48.00;;;28.55;24.49;95510.47;10395450;28;2007;-79
2021/06/16 13:44:38;;;;;;;;;;;29.70;49.10;;;27.72;25.74;95508.00;10394035;28;2036;-81
2021/06/16 13:49:40;;;;;;;;;;;29.40;50.00;;;28.45;25.30;95511.28;10426778;28;2242;-78
2021/06/16 13:54:43;;;;;;;;;;;29.40;50.40;;;28.51;24.39;95515.25;10418082;28;2263;-78
2021/06/16 13:59:46;;;;;;;;;;;29.30;49.60;;;28.84;23.35;95498.59;10437564;28;2031;-78
2021/06/16 14:04:49;;;;;;;;;;;29.50;48.80;;;28.88;23.91;95502.91;10427210;28;2032;-82
2021/06/16 14:09:52;;;;;;;;;;;29.80;49.10;;;28.91;23.46;95504.91;10433513;28;2092;-80
2021/06/16 14:14:55;;;;;;;;;;;29.60;48.60;;;29.13;23.04;95500.13;10444399;28;2320;-80
2021/06/16 14:19:57;;;;;;;;;;;29.70;48.30;;;28.92;24.82;95497.44;10445902;28;2103;-80
2021/06/16 14:25:00;;;;;;;;;;;30.00;49.60;;;28.01;26.00;95495.06;10425753;28;1875;-79
2021/06/16 14:30:03;;;;;;;;;;;29.30;50.20;;;28.48;25.41;95493.91;10420372;28;2239;-83
2021/06/16 14:35:06;;;;;;;;;;;29.60;49.70;;;29.02;24.30;95489.09;10422262;28;2235;-78
2021/06/16 14:40:09;;;;;;;;;;;29.90;49.10;;;28.87;24.36;95495.81;10397597;28;2176;-80
2021/06/16 14:45:13;;;;;;;;;;;30.10;49.00;;;28.20;25.54;95480.06;10405507;28;2209;-80
2021/06/16 14:50:17;;;;;;;;;;;29.80;49.30;;;28.29;25.25;95491.50;10419246;28;2247;-79
2021/06/16 14:55:20;;;;;;;;;;;29.80;48.90;;;27.91;25.32;95480.03;10412472;28;2242;-80
2021/06/16 15:00:26;;;;;;;;;;;29.50;48.90;;;28.31;24.98;95482.81;10416089;28;2148;-81
2021/06/16 15:05:29;;;;;;;;;;;29.40;49.20;;;29.27;22.26;95482.69;10416309;28;2032;-81
2021/06/16 15:10:32;;;;;;;;;;;29.90;47.00;;;29.19;23.12;95473.59;10415687;28;2271;-79
2021/06/16 15:15:35;;;;;;;;;;;30.20;47.00;;;29.74;21.83;95470.22;10417853;28;2018;-81
2021/06/16 15:20:38;;;;;;;;;;;30.50;46.20;;;29.72;21.62;95469.84;10420413;28;2029;-82
2021/06/16 15:25:41;;;;;;;;;;;30.80;45.40;;;29.81;21.33;95464.63;10414310;28;2174;-82
2021/06/16 15:30:43;;;;;;;;;;;30.90;45.40;;;29.13;22.51;95468.88;10418862;28;1784;-82
2021/06/16 15:35:46;;;;;;;;;;;31.00;46.10;;;29.18;22.81;95458.19;10410492;28;1842;-80
2021/06/16 15:40:49;;;;;;;;;;;30.20;46.80;;;29.11;22.96;95451.91;10420492;28;1877;-81
2021/06/16 15:45:52;;;;;;;;;;;30.10;46.90;;;29.43;23.47;95447.00;10420540;28;2263;-81
2021/06/16 15:50:55;;;;;;;;;;;30.30;47.60;;;29.58;23.34;95442.22;10419641;28;2252;-82
2021/06/16 15:55:58;;;;;;;;;;;30.50;47.60;;;29.36;24.60;95452.59;10405491;28;2047;-81
2021/06/16 16:01:00;;;;;;;;;;;30.30;48.60;;;28.72;25.70;95445.28;10418212;28;2115;-79
2021/06/16 16:06:03;;;;;;;;;;;29.90;49.00;;;28.88;25.11;95455.91;10424526;28;2041;-78
2021/06/16 16:11:06;;;;;;;;;;;29.80;48.80;;;28.69;25.29;95448.84;10416156;28;2163;-77
2021/06/16 16:16:09;;;;;;;;;;;29.70;49.00;;;28.60;25.79;95448.47;10424732;28;2063;-81
2021/06/16 16:21:12;;;;;;;;;;;29.50;49.60;;;28.52;26.47;95446.91;10401514;28;2024;-79
2021/06/16 16:26:15;;;;;;;;;;;29.50;50.50;;;28.27;26.66;95450.44;10414386;28;2275;-80
2021/06/16 16:31:18;;;;;;;;;;;29.30;50.80;;;28.36;27.49;95447.31;10447537;28;2039;-80
2021/06/16 16:36:21;;;;;;;;;;;29.20;52.00;;;28.11;28.31;95440.97;10457807;28;2173;-78
2021/06/16 16:41:23;;;;;;;;;;;29.00;52.50;;;27.77;28.78;95452.41;10417123;28;2243;-79
2021/06/16 16:46:26;;;;;;;;;;;28.80;52.50;;;27.61;29.41;95446.41;10432385;28;2127;-80
2021/06/16 16:51:29;;;;;;;;;;;28.60;53.50;;;27.51;29.69;95439.69;10407662;28;2099;-79
2021/06/16 16:56:32;;;;;;;;;;;28.40;54.00;;;27.40;30.40;95444.41;10422510;28;2015;-82
2021/06/16 17:01:35;;;;;;;;;;;28.30;55.00;;;27.50;30.69;95434.56;10419579;28;2083;-80
2021/06/16 17:06:37;;;;;;;;;;;28.30;55.00;;;27.45;30.77;95442.06;10418889;28;2034;-81
2021/06/16 17:11:47;;;;;;;;;;;28.30;55.40;;;27.44;31.08;95440.47;10411336;28;2164;-80
2021/06/16 17:16:49;;;;;;;;;;;28.20;55.90;;;27.28;31.72;95436.47;10430097;28;1892;-79
2021/06/16 17:21:52;;;;;;;;;;;28.20;56.10;;;27.27;31.28;95438.44;10427271;28;2074;-80
2021/06/16 17:26:55;;;;;;;;;;;28.10;56.20;;;26.99;31.13;95438.31;10435172;28;2045;-79
2021/06/16 17:32:03;;;;;;;;;;;28.00;56.00;;;26.91;31.41;95449.31;10423996;28;1989;-81
2021/06/16 17:37:06;;;;;;;;;;;27.80;55.70;;;26.73;32.05;95440.16;10409211;28;1968;-80
2021/06/16 17:42:14;;;;;;;;;;;27.70;56.50;;;26.71;32.79;95438.97;10415684;28;2013;-80
2021/06/16 17:47:17;;;;;;;;;;;27.60;56.90;;;26.61;33.14;95451.53;10418452;28;2072;-79
2021/06/16 17:52:19;;;;;;;;;;;27.50;57.40;;;26.54;32.50;95445.97;10422359;28;2044;-79
2021/06/16 17:57:22;;;;;;;;;;;27.40;57.30;;;26.47;32.89;95454.19;10416804;28;1999;-79
2021/06/16 18:02:25;;;;;;;;;;;27.30;57.70;;;26.30;33.42;95456.41;10425076;28;2119;-81
2021/06/16 18:07:28;;;;;;;;;;;27.20;57.90;;;26.23;33.53;95459.09;10418908;28;1986;-82
2021/06/16 18:12:31;;;;;;;;;;;27.10;58.50;;;26.16;33.72;95466.53;10416926;28;1933;-82
2021/06/16 18:17:34;;;;;;;;;;;27.00;58.70;;;26.05;34.13;95461.72;10422859;28;2076;-81
2021/06/16 18:22:36;;;;;;;;;;;27.00;58.90;;;25.92;34.24;95465.13;10399533;28;2116;-80
2021/06/16 18:27:39;;;;;;;;;;;26.80;58.50;;;25.80;34.61;95457.94;10423200;28;1945;-80
2021/06/16 18:32:42;;;;;;;;;;;26.70;58.80;;;25.67;35.06;95454.66;10411664;28;1967;-80
2021/06/16 18:37:48;;;;;;;;;;;25.70;58.80;;;25.44;35.44;95452.03;10437881;28;2550;-81
2021/06/16 18:42:52;;;;;;;;;;;26.40;59.70;;;25.29;35.93;95445.59;10438159;28;2054;-80
2021/06/16 18:47:59;;;;;;;;;;;26.30;60.20;;;25.15;36.47;95450.94;10428983;28;2005;-79
2021/06/16 18:53:02;;;;;;;;;;;26.10;60.90;;;24.94;36.94;95453.38;10432523;28;1938;-80
2021/06/16 18:58:05;;;;;;;;;;;26.00;61.50;;;24.68;37.61;95463.25;10438482;28;2047;-80
2021/06/16 19:03:21;;;;;;;;;;;25.80;61.60;;;24.54;37.79;95457.56;10440770;28;2106;-80
2021/06/16 19:08:23;;;;;;;;;;;25.60;62.10;;;24.36;38.35;95464.75;10425024;28;1956;-82
2021/06/16 19:13:26;;;;;;;;;;;25.30;62.90;;;24.15;39.05;95460.50;10428716;28;1913;-81
2021/06/16 19:18:29;;;;;;;;;;;25.20;63.50;;;23.97;39.54;95462.16;10429085;28;2008;-81
2021/06/16 19:23:33;;;;;;;;;;;25.10;63.90;;;23.76;40.18;95462.59;10407273;28;2091;-80
2021/06/16 19:28:36;;;;;;;;;;;24.90;64.50;;;23.75;40.08;95466.50;10427876;28;1916;-81
2021/06/16 19:33:39;;;;;;;;;;;24.70;65.00;;;23.53;40.58;95473.50;10424751;28;2036;-82
2021/06/16 19:38:42;;;;;;;;;;;24.60;65.40;;;23.35;41.18;95464.16;10425873;28;1929;-82
2021/06/16 19:43:44;;;;;;;;;;;24.40;65.70;;;23.30;41.49;95473.50;10430570;28;2137;-80
2021/06/16 19:48:47;;;;;;;;;;;24.30;66.30;;;23.09;41.95;95484.03;10418479;28;2086;-83
2021/06/16 19:53:50;;;;;;;;;;;24.20;66.70;;;22.97;42.52;95482.25;10442496;28;2092;-80
2021/06/16 19:58:53;;;;;;;;;;;24.00;67.30;;;22.84;42.92;95478.81;10423364;28;2087;-80
2021/06/16 20:03:56;;;;;;;;;;;23.90;67.80;;;22.56;43.46;95486.38;10438666;28;2129;-82
2021/06/16 20:08:59;;;;;;;;;;;23.70;68.20;;;22.36;44.38;95489.09;10432441;28;1733;-81
2021/06/16 20:14:02;;;;;;;;;;;23.50;68.80;;;22.31;44.49;95492.09;10436742;28;2080;-79
2021/06/16 20:19:05;;;;;;;;;;;23.40;69.40;;;22.12;45.01;95492.81;10440083;28;1890;-83
2021/06/16 20:24:08;;;;;;;;;;;23.20;69.70;;;22.07;45.33;95487.56;10413159;28;1972;-80
2021/06/16 20:29:11;;;;;;;;;;;23.20;70.30;;;21.90;45.96;95495.34;10439852;28;1658;-81
2021/06/16 20:34:13;;;;;;;;;;;23.00;70.70;;;21.75;46.33;95491.44;10425801;28;2113;-82
2021/06/16 20:39:17;;;;;;;;;;;22.90;71.10;;;21.67;46.53;95501.41;10397577;28;2055;-80
2021/06/16 20:44:23;;;;;;;;;;;22.80;71.50;;;21.45;47.52;95494.59;10390325;28;2072;-80
2021/06/16 20:49:26;;;;;;;;;;;22.70;72.30;;;21.47;47.46;95505.19;10417921;28;2100;-82
2021/06/16 20:54:28;;;;;;;;;;;22.50;72.70;;;21.25;48.05;95499.09;10397651;28;2135;-80
2021/06/16 20:59:31;;;;;;;;;;;22.40;72.90;;;21.11;49.09;95501.41;10397539;28;2023;-79
2021/06/16 21:04:34;;;;;;;;;;;22.30;73.70;;;21.02;49.20;95503.53;10432817;28;2162;-79
2021/06/16 21:09:37;;;;;;;;;;;22.20;74.00;;;20.98;49.95;95497.94;10427582;28;2247;-80
2021/06/16 21:14:40;;;;;;;;;;;22.10;74.90;;;20.89;49.04;95510.97;10425424;28;2143;-83
2021/06/16 21:19:43;;;;;;;;;;;22.00;74.60;;;20.85;49.72;95515.50;10399067;28;2083;-79
2021/06/16 21:24:46;;;;;;;;;;;21.90;75.00;;;20.70;50.37;95524.44;10395462;28;2167;-81
2021/06/16 21:29:49;;;;;;;;;;;21.90;75.60;;;20.62;50.94;95514.44;10421462;28;2107;-79
2021/06/16 21:34:51;;;;;;;;;;;21.80;75.90;;;20.56;51.23;95524.00;10422507;28;2060;-81
2021/06/16 21:39:54;;;;;;;;;;;21.70;76.30;;;20.46;51.93;95523.31;10405677;28;2229;-80
2021/06/16 21:44:57;;;;;;;;;;;21.60;76.70;;;20.35;52.17;95527.59;10415969;28;2157;-81
2021/06/16 21:50:00;;;;;;;;;;;21.50;77.10;;;20.23;52.83;95525.69;10423765;28;2144;-80
2021/06/16 21:55:03;;;;;;;;;;;21.40;77.70;;;20.30;52.34;95522.41;10413903;28;2083;-80
2021/06/16 22:00:09;;;;;;;;;;;21.30;78.10;;;20.25;52.17;95525.34;10405705;28;2079;-83
2021/06/16 22:05:12;;;;;;;;;;;21.30;77.80;;;20.28;52.09;95519.19;10423122;28;2415;-81
2021/06/16 22:10:16;;;;;;;;;;;21.30;78.20;;;20.32;50.62;95520.13;10433177;28;2398;-83
2021/06/16 22:15:18;;;;;;;;;;;21.30;77.60;;;20.30;51.08;95521.59;10415213;28;2033;-81
2021/06/16 22:20:21;;;;;;;;;;;21.30;77.10;;;20.10;51.51;95526.00;10416058;28;2043;-82
2021/06/16 22:25:24;;;;;;;;;;;21.20;77.40;;;20.07;51.39;95515.78;10431805;28;1913;-82
2021/06/16 22:30:27;;;;;;;;;;;21.10;77.40;;;19.90;52.55;95525.75;10431649;28;2082;-81
2021/06/16 22:35:30;;;;;;;;;;;21.00;78.10;;;19.81;52.93;95533.25;10411215;28;2139;-82
2021/06/16 22:40:32;;;;;;;;;;;20.90;78.50;;;19.64;52.99;95541.63;10419439;28;1944;-82
2021/06/16 22:45:35;;;;;;;;;;;21.30;79.00;;;19.58;53.64;95543.75;10411650;28;4292;-81
2021/06/16 22:50:39;;;;;;;;;;;20.70;79.40;;;19.44;54.20;95537.78;10419828;28;2099;-81
2021/06/16 22:55:42;;;;;;;;;;;20.60;79.80;;;19.38;56.08;95539.13;10434382;28;2187;-81
2021/06/16 23:00:45;;;;;;;;;;;20.50;81.60;;;19.13;57.24;95528.13;10422366;28;2299;-79
2021/06/16 23:05:47;;;;;;;;;;;20.40;82.20;;;19.27;56.75;95535.22;10433946;28;2256;-81
2021/06/16 23:10:50;;;;;;;;;;;20.30;83.00;;;19.04;56.86;95532.88;10447925;28;2069;-78
2021/06/16 23:15:53;;;;;;;;;;;20.20;82.80;;;18.93;57.72;95536.31;10453636;28;2194;-82